Independence — WDD6659 — position and weather

sailwx.info

Track history (hours):
 
Tides and Currents Weather Stations Pressure Air Temp Water Temp Dewpoint Dewpoint Depression Visibility Wind Speed Wind Dir Waves Ship Positions

Independence

Owner: Sortwell, Inc. DBA AmNav Maritime Services, Oakland, CA. More information available from US FCC via Universal Licensing System and Coast Guard Vessel Documentation Center.

Last reported at 2016-May-03 23:27 UTC. Time now 2016-May-04 04:12 UTC.
Position N 33°44' W 118°17'.

Length 24 m; draft 4.9 m.

Type: Tug. MMSI: 367175860.

Date/timePositionNaut miles runAvg speedWind from/ knotsBaromVisibWave heightAir tempDewpointWater temp
2016-May-03 23:27N 33°44' W 118°17'0 0.0
2016-May-03 22:25N 33°44' W 118°17'0 0.0
2016-May-03 21:33N 33°44' W 118°17'0 0.0
2016-May-03 20:28N 33°44' W 118°17'0 0.0
2016-May-03 17:32N 33°44' W 118°17'0 0.0
2016-May-03 16:33N 33°44' W 118°17'1 0.3
2016-May-03 12:33N 33°44' W 118°15'1 0.1
2016-May-03 00:33N 33°45' W 118°16'1 0.6
2016-May-02 23:33N 33°45' W 118°17'0 0.0
2016-May-02 15:33N 33°45' W 118°17'0 0.0
2016-May-02 14:33N 33°45' W 118°17'1 1.4
2016-May-02 13:33N 33°46' W 118°15'1 1.2
2016-May-02 12:33N 33°45' W 118°16'4 0.4
2016-May-02 02:32N 33°44' W 118°12'2 1.6
2016-May-02 01:33N 33°45' W 118°13'1 1.4
2016-May-02 00:34N 33°46' W 118°14'3 2.3
2016-May-01 23:16N 33°44' W 118°17'4 0.4
2016-May-01 12:33N 33°45' W 118°12'0 0.3
2016-May-01 11:32N 33°44' W 118°12'4 0.3
2016-May-01 01:20N 33°44' W 118°17'1 0.1
2016-Apr-30 14:34N 33°45' W 118°16'0 0.4
2016-Apr-30 13:33N 33°45' W 118°17'2 1.8
2016-Apr-30 12:33N 33°44' W 118°15'0 0.1
2016-Apr-30 11:34N 33°44' W 118°15'1 1.3
2016-Apr-30 10:33N 33°44' W 118°17'0 0.0
2016-Apr-30 09:32N 33°44' W 118°17'0 0.0
2016-Apr-30 08:20N 33°44' W 118°17'0 0.0
2016-Apr-30 07:16N 33°44' W 118°17'0 0.0
2016-Apr-29 12:05N 33°44' W 118°17'0 0.0
2016-Apr-29 11:33N 33°44' W 118°17'0 0.0
2016-Apr-29 10:33N 33°44' W 118°17'0 0.0
2016-Apr-29 01:29N 33°44' W 118°17'3 1.7
2016-Apr-28 23:33N 33°45' W 118°13'1 1.2
2016-Apr-28 22:33N 33°46' W 118°13'4 0.5
2016-Apr-28 15:30N 33°44' W 118°16'0 0.1
2016-Apr-28 14:30N 33°44' W 118°17'3 3.6
2016-Apr-28 13:33N 33°46' W 118°14'1 0.9
2016-Apr-28 12:33N 33°45' W 118°13'2 2.4
2016-Apr-28 11:33N 33°43' W 118°11'2 0.1
2016-Apr-27 13:07N 33°43' W 118°14'2 3.4
2016-Apr-27 12:33N 33°45' W 118°14'1 0.5
2016-Apr-27 11:33N 33°45' W 118°13'0 0.4
2016-Apr-27 10:33N 33°45' W 118°13'0 0.3
2016-Apr-27 09:33N 33°45' W 118°13'3 3.1
2016-Apr-27 08:31N 33°44' W 118°17'0 0.0
2016-Apr-27 07:22N 33°44' W 118°17'0 0.0
2016-Apr-27 04:33N 33°44' W 118°17'0 0.0
2016-Apr-27 03:31N 33°44' W 118°17'0 0.0
2016-Apr-27 02:31N 33°44' W 118°17'0 0.0
2016-Apr-27 01:25N 33°44' W 118°17'0 0.0
2016-Apr-27 00:23N 33°44' W 118°17'0 0.0
2016-Apr-26 23:27N 33°44' W 118°17'0 0.0
2016-Apr-26 22:33N 33°44' W 118°17'0 0.0
2016-Apr-26 19:27N 33°44' W 118°17'0 0.0
2016-Apr-26 14:22N 33°44' W 118°17'0 0.0
2016-Apr-26 13:33N 33°44' W 118°17'3 2.4
2016-Apr-26 12:27N 33°44' W 118°13'1 1.3
2016-Apr-26 11:33N 33°44' W 118°12'1 1.4
2016-Apr-26 10:33N 33°43' W 118°13'3 2.7
2016-Apr-26 09:33N 33°44' W 118°17'0 0.0
2016-Apr-26 08:33N 33°44' W 118°17'0 0.0
2016-Apr-26 07:29N 33°44' W 118°17'1 0.1
2016-Apr-25 22:27N 33°45' W 118°17'1 0.2
2016-Apr-25 18:32N 33°44' W 118°16'2 0.1
2016-Apr-24 16:29N 33°43' W 118°14'3 3.1
2016-Apr-24 15:32N 33°44' W 118°10'3 2.9
2016-Apr-24 14:33N 33°45' W 118°13'0 0.0
2016-Apr-24 13:33N 33°46' W 118°13'  
Track history (hours):
 
Tides and Currents Weather Stations Pressure Air Temp Water Temp Dewpoint Dewpoint Depression Visibility Wind Speed Wind Dir Waves Ship Positions

Independence

Owner: Sortwell, Inc. DBA AmNav Maritime Services, Oakland, CA. More information available from US FCC via Universal Licensing System and Coast Guard Vessel Documentation Center.

Last reported at 2016-May-03 23:27 UTC. Time now 2016-May-04 04:12 UTC.
Position N 33°44' W 118°17'.

Length 24 m; draft 4.9 m.

Type: Tug. MMSI: 367175860.

Date/timePositionNaut miles runAvg speedWind from/ knotsBaromVisibWave heightAir tempDewpointWater temp
2016-May-03 23:27N 33°44' W 118°17'0 0.0
2016-May-03 22:25N 33°44' W 118°17'0 0.0
2016-May-03 21:33N 33°44' W 118°17'0 0.0
2016-May-03 20:28N 33°44' W 118°17'0 0.0
2016-May-03 17:32N 33°44' W 118°17'0 0.0
2016-May-03 16:33N 33°44' W 118°17'1 0.3
2016-May-03 12:33N 33°44' W 118°15'1 0.1
2016-May-03 00:33N 33°45' W 118°16'1 0.6
2016-May-02 23:33N 33°45' W 118°17'0 0.0
2016-May-02 15:33N 33°45' W 118°17'0 0.0
2016-May-02 14:33N 33°45' W 118°17'1 1.4
2016-May-02 13:33N 33°46' W 118°15'1 1.2
2016-May-02 12:33N 33°45' W 118°16'4 0.4
2016-May-02 02:32N 33°44' W 118°12'2 1.6
2016-May-02 01:33N 33°45' W 118°13'1 1.4
2016-May-02 00:34N 33°46' W 118°14'3 2.3
2016-May-01 23:16N 33°44' W 118°17'4 0.4
2016-May-01 12:33N 33°45' W 118°12'0 0.3
2016-May-01 11:32N 33°44' W 118°12'4 0.3
2016-May-01 01:20N 33°44' W 118°17'1 0.1
2016-Apr-30 14:34N 33°45' W 118°16'0 0.4
2016-Apr-30 13:33N 33°45' W 118°17'2 1.8
2016-Apr-30 12:33N 33°44' W 118°15'0 0.1
2016-Apr-30 11:34N 33°44' W 118°15'1 1.3
2016-Apr-30 10:33N 33°44' W 118°17'0 0.0
2016-Apr-30 09:32N 33°44' W 118°17'0 0.0
2016-Apr-30 08:20N 33°44' W 118°17'0 0.0
2016-Apr-30 07:16N 33°44' W 118°17'0 0.0
2016-Apr-29 12:05N 33°44' W 118°17'0 0.0
2016-Apr-29 11:33N 33°44' W 118°17'0 0.0
2016-Apr-29 10:33N 33°44' W 118°17'0 0.0
2016-Apr-29 01:29N 33°44' W 118°17'3 1.7
2016-Apr-28 23:33N 33°45' W 118°13'1 1.2
2016-Apr-28 22:33N 33°46' W 118°13'4 0.5
2016-Apr-28 15:30N 33°44' W 118°16'0 0.1
2016-Apr-28 14:30N 33°44' W 118°17'3 3.6
2016-Apr-28 13:33N 33°46' W 118°14'1 0.9
2016-Apr-28 12:33N 33°45' W 118°13'2 2.4
2016-Apr-28 11:33N 33°43' W 118°11'2 0.1
2016-Apr-27 13:07N 33°43' W 118°14'2 3.4
2016-Apr-27 12:33N 33°45' W 118°14'1 0.5
2016-Apr-27 11:33N 33°45' W 118°13'0 0.4
2016-Apr-27 10:33N 33°45' W 118°13'0 0.3
2016-Apr-27 09:33N 33°45' W 118°13'3 3.1
2016-Apr-27 08:31N 33°44' W 118°17'0 0.0
2016-Apr-27 07:22N 33°44' W 118°17'0 0.0
2016-Apr-27 04:33N 33°44' W 118°17'0 0.0
2016-Apr-27 03:31N 33°44' W 118°17'0 0.0
2016-Apr-27 02:31N 33°44' W 118°17'0 0.0
2016-Apr-27 01:25N 33°44' W 118°17'0 0.0
2016-Apr-27 00:23N 33°44' W 118°17'0 0.0
2016-Apr-26 23:27N 33°44' W 118°17'0 0.0
2016-Apr-26 22:33N 33°44' W 118°17'0 0.0
2016-Apr-26 19:27N 33°44' W 118°17'0 0.0
2016-Apr-26 14:22N 33°44' W 118°17'0 0.0
2016-Apr-26 13:33N 33°44' W 118°17'3 2.4
2016-Apr-26 12:27N 33°44' W 118°13'1 1.3
2016-Apr-26 11:33N 33°44' W 118°12'1 1.4
2016-Apr-26 10:33N 33°43' W 118°13'3 2.7
2016-Apr-26 09:33N 33°44' W 118°17'0 0.0
2016-Apr-26 08:33N 33°44' W 118°17'0 0.0
2016-Apr-26 07:29N 33°44' W 118°17'1 0.1
2016-Apr-25 22:27N 33°45' W 118°17'1 0.2
2016-Apr-25 18:32N 33°44' W 118°16'2 0.1
2016-Apr-24 16:29N 33°43' W 118°14'3 3.1
2016-Apr-24 15:32N 33°44' W 118°10'3 2.9
2016-Apr-24 14:33N 33°45' W 118°13'0 0.0
2016-Apr-24 13:33N 33°46' W 118°13'  

Dump ship's entire track history